Bowie, MD

8:31 PM EDT on September 20, 2014 (GMT -0400)
Saddlebrook West | Change Station
CLOSE
Current Station
Personal Weather Station
Location: Bowie, MD
Elevation: 144 ft
Nearby Weather Stations

Elev 144 ft 39.00 °N, 76.75 °W | Updated 2 minutes ago

Clear
Clear
65.6 °F
Feels Like 65.6 °F
N
0.0
Wind Variable Wind from South

Today
High -- | Low -- °F
--% Chance of Precip.
Yesterday
High -- | Low -- °F
Precip. -- in
6:52 AM 7:07 PM
Waning Crescent, 9% visible
Pressure 30.09 in
Visibility 10.0 miles
Clouds Clear
Dew Point 61 °F
Humidity 86%
Rainfall 0.00 in
Snow Depth Not available.
UV 0 out of 12
Pollen 3.90 out of 12
Air Quality Not available.
Flu Activity Not available.
METAR KFME 210021Z AUTO 00000KT 10SM CLR 17/15 A3009 RMK AO1

More Conditions Fewer Conditions

Pressure 30.09 in
Visibility 10.0 miles
Clouds Clear
Dew Point 61 °F
Humidity 86%
Rainfall 0.00 in
Snow Depth Not available.
UV 0 out of 12
Pollen 3.90 out of 12
Air Quality Not available.
Flu Activity Not available.
METAR KFME 210021Z AUTO 00000KT 10SM CLR 17/15 A3009 RMK AO1

More Conditions Fewer Conditions

10-Day Weather Forecast

Almanac

Astronomy

Sep. 20, 2014 Rise Set
Actual Time 6:52 AM EDT 7:07 PM EDT
Civil Twilight 6:26 AM EDT 7:33 PM EDT
Nautical Twilight 5:54 AM EDT 8:05 PM EDT
Astronomical Twilight 5:23 AM EDT 8:36 PM EDT
Moon 3:31 AM EDT (9/20) 5:08 PM EDT (9/20)
Length of Visible Light 13h 07m
Length of Day
12h 14m
Tomorrow will be 2m 30s shorter.
Waning Crescent, 9% of the Moon is Illuminated
Today
Waning Crescent
Sep 24
New
Oct 1
First Quarter
Oct 8
Full
Oct 15
Last Quarter

Today's Extremes

State Highs State Lows

Community

WunderPhotos

Upload Photos

1,755,000 photos uploaded!

WunderBlogs® & News

Nearby

Snow Depth

Station Depth Elevation
No new snow has been reported.

Earthquake Activity

City Distance Mag. Time & Date
No recent earthquake activity has been reported nearby.
Minimum magnitude displayed is 2.5.

Coastal Water Temperatures

Place Temperature
Cambridge, MD 73.9 °F
Tolchester Beach, MD 73.9 °F
Baltimore, MD 75.9 °F

Nearby Weather Stations